createdAt,value
2018-09-20T00:01:39.778Z,333.15
2018-09-20T00:03:42.076Z,328.60
2018-09-20T00:05:44.329Z,335.25
2018-09-20T00:07:46.638Z,318.65
2018-09-20T00:09:48.922Z,315.02
2018-09-20T00:11:51.212Z,314.05
2018-09-20T00:13:53.502Z,306.25
2018-09-20T00:15:55.760Z,294.35
2018-09-20T00:17:58.076Z,296.52
2018-09-20T00:20:00.322Z,302.70
2018-09-20T00:22:02.582Z,281.68
2018-09-20T00:24:04.895Z,288.10
2018-09-20T00:26:07.146Z,289.38
2018-09-20T00:28:09.404Z,286.32
2018-09-20T00:30:11.688Z,279.50
2018-09-20T00:32:13.948Z,272.30
2018-09-20T00:34:16.267Z,274.62
2018-09-20T00:36:18.511Z,271.55
2018-09-20T00:38:20.773Z,268.27
2018-09-20T00:40:23.084Z,271.75
2018-09-20T00:42:25.326Z,273.95
2018-09-20T00:44:27.588Z,252.35
2018-09-20T00:46:29.903Z,255.22
2018-09-20T00:48:32.148Z,255.92
2018-09-20T00:50:34.466Z,258.15
2018-09-20T00:52:36.733Z,252.78
2018-09-20T00:54:38.983Z,249.70
2018-09-20T00:56:41.281Z,245.25
2018-09-20T00:58:43.552Z,248.07
2018-09-20T01:00:45.805Z,251.90
2018-09-20T01:02:48.089Z,244.05
2018-09-20T01:04:50.356Z,244.72
2018-09-20T01:06:52.651Z,230.70
2018-09-20T01:08:54.908Z,228.05
2018-09-20T01:10:57.194Z,228.35
2018-09-20T01:12:59.461Z,220.55
2018-09-20T01:15:01.746Z,215.90
2018-09-20T01:17:04.045Z,226.42
2018-09-20T01:19:06.289Z,215.32
2018-09-20T01:21:08.537Z,212.55
2018-09-20T01:23:10.833Z,215.50
2018-09-20T01:25:13.084Z,207.45
2018-09-20T01:27:15.389Z,217.00
2018-09-20T01:29:17.749Z,202.40
2018-09-20T01:31:20.009Z,201.80
2018-09-20T01:33:22.267Z,194.40
2018-09-20T01:35:24.607Z,195.28
2018-09-20T01:37:26.833Z,193.40
2018-09-20T01:39:29.083Z,189.93
2018-09-20T01:41:31.503Z,187.50
2018-09-20T01:43:33.775Z,189.77
2018-09-20T01:45:36.030Z,175.62
2018-09-20T01:47:38.313Z,176.27
2018-09-20T01:49:40.635Z,180.97
2018-09-20T01:51:42.896Z,174.85
2018-09-20T01:53:45.201Z,176.70
2018-09-20T01:55:47.461Z,170.57
2018-09-20T01:57:49.741Z,171.95
2018-09-20T01:59:52.014Z,168.47
2018-09-20T02:01:54.315Z,173.22
2018-09-20T02:03:56.575Z,169.17
2018-09-20T02:05:58.841Z,163.52
2018-09-20T02:08:01.115Z,159.82
2018-09-20T02:10:03.398Z,163.00
2018-09-20T02:12:05.683Z,155.05
2018-09-20T02:14:07.982Z,151.30
2018-09-20T02:16:10.219Z,150.07
2018-09-20T02:18:12.507Z,144.15
2018-09-20T02:20:14.754Z,153.10
2018-09-20T02:22:17.047Z,142.55
2018-09-20T02:24:19.312Z,148.32
2018-09-20T02:26:21.661Z,141.53
2018-09-20T02:28:23.920Z,150.03
2018-09-20T02:30:26.210Z,141.07
2018-09-20T02:32:28.503Z,135.70
2018-09-20T02:34:30.757Z,136.80
2018-09-20T02:36:33.053Z,136.62
2018-09-20T02:38:35.299Z,140.35
2018-09-20T02:40:37.617Z,135.85
2018-09-20T02:42:39.895Z,132.72
2018-09-20T02:44:42.146Z,132.10
2018-09-20T02:46:44.439Z,134.15
2018-09-20T02:48:46.737Z,135.30
2018-09-20T02:50:48.998Z,128.97
2018-09-20T02:52:51.276Z,131.12
2018-09-20T02:54:53.567Z,123.05
2018-09-20T02:56:55.817Z,122.65
2018-09-20T02:58:58.129Z,123.15
2018-09-20T03:01:00.391Z,123.62
2018-09-20T03:03:02.690Z,119.55
2018-09-20T03:05:04.949Z,115.77
2018-09-20T03:07:07.208Z,117.60
2018-09-20T03:09:09.493Z,119.17
2018-09-20T03:11:11.815Z,116.65
2018-09-20T03:13:14.080Z,111.42
2018-09-20T03:15:16.344Z,117.53
2018-09-20T03:17:18.610Z,110.83
2018-09-20T03:19:20.868Z,110.85
2018-09-20T03:21:23.169Z,112.17
2018-09-20T03:23:25.447Z,112.70
2018-09-20T03:25:27.700Z,102.50
2018-09-20T03:27:29.992Z,109.12
2018-09-20T03:29:32.277Z,104.85
2018-09-20T03:31:34.574Z,111.45
2018-09-20T03:33:36.831Z,100.60
2018-09-20T03:35:39.079Z,107.15
2018-09-20T03:37:41.388Z,105.70
2018-09-20T03:39:43.666Z,106.27
2018-09-20T03:41:45.928Z,101.97
2018-09-20T03:43:48.240Z,100.50
2018-09-20T03:45:50.500Z,101.27
2018-09-20T03:47:52.760Z,105.43
2018-09-20T03:49:55.049Z,103.78
2018-09-20T03:51:57.294Z,101.78
2018-09-20T03:53:59.586Z,101.95
2018-09-20T03:56:01.839Z,98.10
2018-09-20T03:58:04.096Z,98.67
2018-09-20T04:00:06.400Z,100.18
2018-09-20T04:02:08.688Z,98.12
2018-09-20T04:04:10.986Z,90.92
2018-09-20T04:06:13.283Z,92.75
2018-09-20T04:08:15.554Z,96.28
2018-09-20T04:10:17.832Z,91.25
2018-09-20T04:12:20.118Z,91.90
2018-09-20T04:14:22.370Z,91.28
2018-09-20T04:16:24.662Z,91.37
2018-09-20T04:18:26.927Z,92.22
2018-09-20T04:20:29.229Z,90.50
2018-09-20T04:22:31.486Z,85.10
2018-09-20T04:24:33.744Z,91.60
2018-09-20T04:26:36.024Z,86.35
2018-09-20T04:28:38.318Z,82.35
2018-09-20T04:30:40.568Z,85.62
2018-09-20T04:32:42.828Z,71.47
2018-09-20T04:34:45.112Z,70.22
2018-09-20T04:36:47.371Z,70.37
2018-09-20T04:38:49.646Z,80.53
2018-09-20T04:40:51.918Z,77.62
2018-09-20T04:42:54.199Z,85.83
2018-09-20T04:44:56.476Z,77.58
2018-09-20T04:46:58.802Z,79.15
2018-09-20T04:49:01.048Z,108.75
2018-09-20T04:51:03.316Z,112.72
2018-09-20T04:53:05.590Z,104.38
2018-09-20T04:55:07.855Z,111.35
2018-09-20T04:57:10.174Z,159.95
2018-09-20T04:59:12.439Z,148.68
2018-09-20T05:01:14.680Z,145.90
2018-09-20T05:03:16.961Z,148.53
2018-09-20T05:05:19.230Z,159.55
2018-09-20T05:07:21.488Z,145.95
2018-09-20T05:09:23.773Z,156.52
2018-09-20T05:11:26.054Z,193.62
2018-09-20T05:13:28.333Z,217.05
2018-09-20T05:15:30.624Z,167.55
2018-09-20T05:17:32.925Z,193.93
2018-09-20T05:19:35.186Z,167.07
2018-09-20T05:21:37.444Z,234.77
2018-09-20T05:23:39.741Z,138.82
2018-09-20T05:25:41.992Z,133.40
2018-09-20T05:27:44.281Z,145.82
2018-09-20T05:29:46.537Z,111.22
2018-09-20T05:31:48.841Z,105.47
2018-09-20T05:33:51.111Z,114.92
2018-09-20T05:35:53.399Z,93.17
2018-09-20T05:37:55.794Z,86.82
2018-09-20T05:39:58.031Z,88.58
2018-09-20T05:42:00.327Z,81.17
2018-09-20T05:44:02.584Z,80.20
2018-09-20T05:46:04.900Z,92.97
2018-09-20T05:48:07.154Z,421.00
2018-09-20T05:50:09.435Z,102.20
2018-09-20T05:52:11.715Z,56.63
2018-09-20T05:54:14.006Z,101.12
2018-09-20T05:56:16.259Z,125.02
2018-09-20T05:58:18.560Z,72.37
2018-09-20T06:00:20.881Z,46.77
2018-09-20T06:02:23.151Z,29.25
2018-09-20T06:04:25.404Z,19.90
2018-09-20T06:06:27.685Z,13.80
2018-09-20T06:08:29.970Z,147.15
2018-09-20T06:10:32.260Z,68.60
2018-09-20T06:12:34.516Z,58.02
2018-09-20T06:14:36.809Z,31.68
2018-09-20T06:16:39.080Z,26.55
2018-09-20T06:18:41.459Z,19.42
2018-09-20T06:20:43.717Z,15.53
2018-09-20T06:22:45.955Z,11.93
2018-09-20T06:24:48.273Z,9.10
2018-09-20T06:26:50.527Z,296.00
2018-09-20T06:28:52.795Z,241.35
2018-09-20T06:30:55.099Z,90.20
2018-09-20T06:32:57.380Z,47.03
2018-09-20T06:34:59.701Z,26.70
2018-09-20T06:37:01.941Z,56.28
2018-09-20T06:39:04.257Z,59.15
2018-09-20T06:41:06.617Z,112.62
2018-09-20T06:43:08.776Z,35.50
2018-09-20T06:45:11.071Z,23.98
2018-09-20T06:47:13.323Z,14.03
2018-09-20T06:49:15.605Z,10.88
2018-09-20T06:51:17.925Z,9.08
2018-09-20T06:53:20.185Z,6.80
2018-09-20T06:55:22.434Z,6.30
2018-09-20T06:57:24.732Z,6.08
2018-09-20T06:59:26.993Z,59.48
2018-09-20T07:01:29.297Z,138.47
2018-09-20T07:03:31.559Z,23.55
2018-09-20T07:05:33.855Z,10.93
2018-09-20T07:07:36.120Z,36.73
2018-09-20T07:09:38.405Z,23.25
2018-09-20T07:11:40.676Z,14.83
2018-09-20T07:13:43.028Z,349.75
2018-09-20T07:15:45.259Z,26.23
2018-09-20T07:17:47.532Z,25.85
2018-09-20T07:19:49.802Z,13.93
2018-09-20T07:21:52.081Z,16.37
2018-09-20T07:23:54.333Z,57.17
2018-09-20T07:25:56.627Z,122.00
2018-09-20T07:27:58.899Z,106.35
2018-09-20T07:30:01.205Z,19.42
2018-09-20T07:32:03.483Z,10.93
2018-09-20T07:34:05.729Z,7.72
2018-09-20T07:36:07.990Z,5.50
2018-09-20T07:38:10.296Z,4.50
2018-09-20T07:40:12.539Z,4.22
2018-09-20T07:42:14.809Z,4.92
2018-09-20T07:44:17.158Z,4.72
2018-09-20T07:46:19.396Z,4.95
2018-09-20T07:48:21.665Z,4.28
2018-09-20T07:50:23.929Z,4.28
2018-09-20T07:52:26.225Z,4.50
2018-09-20T07:54:28.519Z,4.83
2018-09-20T07:56:30.820Z,4.37
2018-09-20T07:58:33.098Z,4.10
2018-09-20T08:00:35.378Z,3.87
2018-09-20T08:02:37.678Z,4.25
2018-09-20T08:04:39.950Z,3.80
2018-09-20T08:06:42.250Z,7.80
2018-09-20T08:08:44.520Z,5.47
2018-09-20T08:10:46.794Z,4.17
2018-09-20T08:12:49.148Z,4.45
2018-09-20T08:14:51.344Z,4.15
2018-09-20T08:16:53.638Z,5.05
2018-09-20T08:18:55.882Z,7.08
2018-09-20T08:20:58.176Z,4.95
2018-09-20T08:23:00.474Z,5.42
2018-09-20T08:25:02.776Z,5.03
2018-09-20T08:27:05.040Z,3.58
2018-09-20T08:29:07.324Z,3.90
2018-09-20T08:31:09.589Z,4.53
2018-09-20T08:33:11.864Z,4.00
2018-09-20T08:35:14.120Z,3.98
2018-09-20T08:37:16.479Z,4.22
2018-09-20T08:39:18.665Z,3.90
2018-09-20T08:41:20.922Z,4.22
2018-09-20T08:43:23.188Z,3.83
2018-09-20T08:45:25.468Z,3.90
2018-09-20T08:47:27.760Z,3.77
2018-09-20T08:49:30.075Z,3.50
2018-09-20T08:51:32.363Z,3.90
2018-09-20T08:53:34.593Z,3.75
2018-09-20T08:55:36.884Z,4.20
2018-09-20T08:57:39.171Z,3.50
2018-09-20T08:59:41.457Z,3.85
2018-09-20T09:01:43.736Z,4.12
2018-09-20T09:03:45.988Z,60.05
2018-09-20T09:05:48.242Z,30.17
2018-09-20T09:07:50.534Z,41.58
2018-09-20T09:09:52.782Z,15.78
2018-09-20T09:11:55.049Z,6.80
2018-09-20T09:13:57.337Z,5.00
2018-09-20T09:15:59.577Z,4.97
2018-09-20T09:18:01.862Z,4.08
2018-09-20T09:20:04.120Z,3.90
2018-09-20T09:22:06.404Z,5.05
2018-09-20T09:24:08.643Z,3.92
2018-09-20T09:26:10.964Z,3.90
2018-09-20T09:28:13.227Z,3.80
2018-09-20T09:30:15.501Z,3.50
2018-09-20T09:32:17.779Z,4.03
2018-09-20T09:34:20.109Z,3.85
2018-09-20T09:36:22.294Z,4.28
2018-09-20T09:38:24.594Z,3.67
2018-09-20T09:40:27.067Z,3.72
2018-09-20T09:42:29.362Z,4.20
2018-09-20T09:44:31.620Z,3.37
2018-09-20T09:46:33.907Z,3.30
2018-09-20T09:48:36.196Z,234.65
2018-09-20T09:50:38.445Z,16.23
2018-09-20T09:52:40.749Z,265.62
2018-09-20T09:54:43.051Z,38.70
2018-09-20T09:56:45.291Z,9.60
2018-09-20T09:58:47.597Z,5.08
2018-09-20T10:00:49.875Z,4.20
2018-09-20T10:02:52.148Z,3.65
2018-09-20T10:04:54.437Z,3.12
2018-09-20T10:06:56.888Z,13.25
2018-09-20T10:08:59.445Z,3.55
2018-09-20T10:11:01.740Z,4.28
2018-09-20T10:13:04.001Z,3.77
2018-09-20T10:15:06.239Z,3.55
2018-09-20T10:17:08.528Z,3.47
2018-09-20T10:19:10.769Z,4.20
2018-09-20T10:21:13.069Z,3.50
2018-09-20T10:23:15.348Z,3.42
2018-09-20T10:25:17.727Z,27.93
2018-09-20T10:27:19.991Z,58.85
2018-09-20T10:29:22.289Z,26.70
2018-09-20T10:31:24.572Z,27.65
2018-09-20T10:33:26.860Z,18.65
2018-09-20T10:35:29.110Z,8.50
2018-09-20T10:37:31.367Z,5.35
2018-09-20T10:39:33.666Z,4.42
2018-09-20T10:41:35.969Z,4.17
2018-09-20T10:43:38.243Z,4.12
2018-09-20T10:45:40.532Z,4.22
2018-09-20T10:47:42.803Z,27.22
2018-09-20T10:49:45.124Z,24.10
2018-09-20T10:51:47.377Z,53.92
2018-09-20T10:53:49.641Z,30.27
2018-09-20T10:55:51.942Z,17.62
2018-09-20T10:57:54.235Z,12.03
2018-09-20T10:59:56.540Z,11.78
2018-09-20T11:01:58.789Z,16.48
2018-09-20T11:04:01.089Z,12.90
2018-09-20T11:06:03.389Z,6.03
2018-09-20T11:08:05.636Z,3.70
2018-09-20T11:10:07.902Z,4.30
2018-09-20T11:12:10.193Z,13.00
2018-09-20T11:14:12.499Z,5.00
2018-09-20T11:16:14.743Z,5.05
2018-09-20T11:18:16.989Z,5.75
2018-09-20T11:20:19.307Z,4.08
2018-09-20T11:22:21.558Z,4.25
2018-09-20T11:24:23.860Z,7.10
2018-09-20T11:26:26.117Z,8.48
2018-09-20T11:28:28.361Z,6.97
2018-09-20T11:30:30.647Z,7.37
2018-09-20T11:32:32.914Z,13.78
2018-09-20T11:34:35.199Z,7.47
2018-09-20T11:36:37.506Z,4.87
2018-09-20T11:38:39.757Z,4.42
2018-09-20T11:40:41.995Z,5.65
2018-09-20T11:42:44.295Z,6.35
2018-09-20T11:44:46.586Z,11.88
2018-09-20T11:46:48.885Z,42.55
2018-09-20T11:48:51.157Z,175.65
2018-09-20T11:50:53.411Z,13.58
2018-09-20T11:52:55.701Z,14.28
2018-09-20T11:54:57.999Z,7.78
2018-09-20T11:57:00.267Z,10.60
2018-09-20T11:59:02.540Z,5.45
2018-09-20T12:01:04.804Z,12.58
2018-09-20T12:03:07.083Z,5.12
2018-09-20T12:05:09.332Z,3.83
2018-09-20T12:07:11.584Z,3.85
2018-09-20T12:09:13.845Z,3.52
2018-09-20T12:11:16.107Z,3.33
2018-09-20T12:13:18.394Z,3.70
2018-09-20T12:15:20.663Z,3.85
2018-09-20T12:17:22.948Z,3.47
2018-09-20T12:19:25.208Z,11.70
2018-09-20T12:21:27.469Z,4.50
2018-09-20T12:23:29.762Z,3.90
2018-09-20T12:25:32.025Z,4.00
2018-09-20T12:27:34.320Z,18.75
2018-09-20T12:29:36.609Z,26.75
2018-09-20T12:31:38.890Z,23.05
2018-09-20T12:33:41.138Z,32.23
2018-09-20T12:35:43.533Z,22.05
2018-09-20T12:37:45.705Z,7.90
2018-09-20T12:39:47.963Z,15.95
2018-09-20T12:41:50.252Z,18.73
2018-09-20T12:43:52.510Z,19.82
2018-09-20T12:46:21.316Z,4.87
2018-09-20T12:48:23.613Z,3.55
2018-09-20T12:50:25.868Z,4.12
2018-09-20T12:52:28.109Z,3.20
2018-09-20T12:54:30.414Z,4.17
2018-09-20T12:56:32.658Z,3.30
2018-09-20T12:58:34.957Z,4.03
2018-09-20T13:00:37.252Z,3.70
2018-09-20T13:02:39.490Z,6.53
2018-09-20T13:04:41.895Z,11.40
2018-09-20T13:06:44.174Z,8.13
2018-09-20T13:08:46.418Z,5.47
2018-09-20T13:10:48.772Z,4.12
2018-09-20T13:12:51.027Z,4.42
2018-09-20T13:14:53.316Z,3.40
2018-09-20T13:16:55.556Z,4.20
2018-09-20T13:18:57.812Z,3.67
2018-09-20T13:21:00.104Z,3.87
2018-09-20T13:23:02.344Z,4.00
2018-09-20T13:25:04.579Z,3.62
2018-09-20T13:27:06.870Z,4.15
2018-09-20T13:29:09.133Z,4.72
2018-09-20T13:31:11.410Z,5.12
2018-09-20T13:33:13.707Z,4.03
2018-09-20T13:35:15.992Z,3.90
2018-09-20T13:37:18.296Z,4.78
2018-09-20T13:39:20.578Z,3.95
2018-09-20T13:41:22.827Z,3.62
2018-09-20T13:43:25.195Z,3.90
2018-09-20T13:45:27.477Z,4.50
2018-09-20T13:47:29.716Z,3.70
2018-09-20T13:49:32.004Z,3.65
2018-09-20T13:51:34.271Z,4.17
2018-09-20T13:53:36.547Z,3.30
2018-09-20T13:55:38.849Z,3.40
2018-09-20T13:57:41.095Z,71.42
2018-09-20T13:59:43.391Z,46.53
2018-09-20T14:01:45.654Z,100.35
2018-09-20T14:03:47.953Z,39.80
2018-09-20T14:05:50.236Z,29.67
2018-09-20T14:07:52.523Z,18.27
2018-09-20T14:09:54.763Z,14.85
2018-09-20T14:11:57.099Z,15.70
2018-09-20T14:13:59.355Z,48.78
2018-09-20T14:16:01.621Z,59.03
2018-09-20T14:18:03.911Z,77.72
2018-09-20T14:20:06.236Z,14.28
2018-09-20T14:22:08.480Z,11.12
2018-09-20T14:24:10.750Z,7.58
2018-09-20T14:26:13.055Z,7.90
2018-09-20T14:28:15.324Z,5.05
2018-09-20T14:30:17.626Z,6.92
2018-09-20T14:32:19.874Z,4.65
2018-09-20T14:34:22.136Z,3.50
2018-09-20T14:36:24.442Z,7.10
2018-09-20T14:38:26.705Z,5.37
2018-09-20T14:40:28.947Z,16.07
2018-09-20T14:42:31.256Z,27.13
2018-09-20T14:44:33.564Z,16.75
2018-09-20T14:46:35.822Z,6.08
2018-09-20T14:48:38.132Z,73.97
2018-09-20T14:50:40.408Z,124.90
2018-09-20T14:52:42.742Z,82.55
2018-09-20T14:54:44.972Z,50.38
2018-09-20T14:56:47.267Z,39.65
2018-09-20T14:58:49.534Z,34.92
2018-09-20T15:00:51.787Z,32.05
2018-09-20T15:02:54.089Z,26.52
2018-09-20T15:04:56.385Z,25.72
2018-09-20T15:06:58.691Z,22.00
2018-09-20T15:09:00.992Z,16.60
2018-09-20T15:11:03.245Z,15.18
2018-09-20T15:13:05.555Z,14.60
2018-09-20T15:15:07.869Z,12.53
2018-09-20T15:17:10.123Z,12.93
2018-09-20T15:19:12.363Z,11.65
2018-09-20T15:21:14.643Z,11.93
2018-09-20T15:23:16.912Z,11.57
2018-09-20T15:25:19.199Z,10.98
2018-09-20T15:27:21.493Z,8.58
2018-09-20T15:29:23.807Z,8.13
2018-09-20T15:31:26.048Z,7.78
2018-09-20T15:33:28.325Z,8.50
2018-09-20T15:35:30.599Z,7.80
2018-09-20T15:37:32.901Z,8.58
2018-09-20T15:39:35.143Z,6.50
2018-09-20T15:41:37.458Z,6.55
2018-09-20T15:43:39.733Z,6.22
2018-09-20T15:45:41.981Z,5.37
2018-09-20T15:47:44.243Z,5.72
2018-09-20T15:49:46.535Z,5.58
2018-09-20T15:51:48.777Z,5.35
2018-09-20T15:53:51.083Z,4.90
2018-09-20T15:55:53.395Z,5.33
2018-09-20T15:57:55.647Z,5.55
2018-09-20T15:59:57.925Z,4.80
2018-09-20T16:02:00.168Z,4.53
2018-09-20T16:04:02.432Z,5.20
2018-09-20T16:06:04.704Z,4.60
2018-09-20T16:08:06.963Z,4.45
2018-09-20T16:10:09.260Z,4.83
2018-09-20T16:12:11.507Z,4.80
2018-09-20T16:14:13.761Z,4.58
2018-09-20T16:16:16.035Z,4.67
2018-09-20T16:18:18.286Z,4.45
2018-09-20T16:20:20.577Z,3.92
2018-09-20T16:22:22.829Z,3.85
2018-09-20T16:24:25.077Z,4.30
2018-09-20T16:26:27.393Z,4.28
2018-09-20T16:28:29.666Z,4.17
2018-09-20T16:30:31.946Z,3.72
2018-09-20T16:32:34.252Z,3.33
2018-09-20T16:34:36.486Z,3.67
2018-09-20T16:36:38.763Z,3.58
2018-09-20T16:38:41.045Z,3.70
2018-09-20T16:40:43.297Z,3.95
2018-09-20T16:42:45.562Z,3.87
2018-09-20T16:44:47.827Z,3.60
2018-09-20T16:46:50.085Z,3.98
2018-09-20T16:48:52.361Z,3.85
2018-09-20T16:50:54.612Z,3.25
2018-09-20T16:52:56.957Z,3.15
2018-09-20T16:54:59.208Z,3.33
2018-09-20T16:57:01.475Z,3.50
2018-09-20T16:59:03.767Z,4.00
2018-09-20T17:01:06.023Z,3.62
2018-09-20T17:03:08.280Z,3.52
2018-09-20T17:05:10.641Z,3.58
2018-09-20T17:07:12.943Z,3.42
2018-09-20T17:09:15.120Z,4.00
2018-09-20T17:11:17.418Z,3.37
2018-09-20T17:13:19.768Z,3.70
2018-09-20T17:15:21.989Z,3.75
2018-09-20T17:17:24.290Z,3.25
2018-09-20T17:19:26.597Z,81.65
2018-09-20T17:21:28.860Z,86.02
2018-09-20T17:23:31.131Z,22.32
2018-09-20T17:25:33.513Z,20.37
2018-09-20T17:27:35.720Z,11.40
2018-09-20T17:29:38.000Z,9.05
2018-09-20T17:31:40.257Z,6.40
2018-09-20T17:33:42.574Z,4.58
2018-09-20T17:35:44.829Z,3.98
2018-09-20T17:37:47.097Z,4.42
2018-09-20T17:39:49.398Z,5.90
2018-09-20T17:41:51.650Z,5.20
2018-09-20T17:43:53.892Z,5.08
2018-09-20T17:45:56.179Z,4.10
2018-09-20T17:47:58.429Z,3.55
2018-09-20T17:50:00.676Z,4.75
2018-09-20T17:52:02.973Z,6.12
2018-09-20T17:54:05.246Z,4.92
2018-09-20T17:56:07.496Z,4.00
2018-09-20T17:58:09.790Z,4.00
2018-09-20T18:00:12.030Z,4.90
2018-09-20T18:02:14.366Z,3.60
2018-09-20T18:04:16.623Z,3.50
2018-09-20T18:06:18.906Z,3.98
2018-09-20T18:08:21.176Z,4.53
2018-09-20T18:10:23.451Z,4.15
2018-09-20T18:12:25.720Z,3.85
2018-09-20T18:14:28.004Z,4.10
2018-09-20T18:16:30.310Z,8.08
2018-09-20T18:18:32.602Z,71.97
2018-09-20T18:20:34.898Z,108.07
2018-09-20T18:22:37.179Z,104.67
2018-09-20T18:24:39.455Z,129.38
2018-09-20T18:26:41.760Z,165.05
2018-09-20T18:28:44.024Z,183.18
2018-09-20T18:30:46.325Z,185.45
2018-09-20T18:32:48.640Z,207.87
2018-09-20T18:34:50.909Z,218.95
2018-09-20T18:36:53.208Z,229.55
2018-09-20T18:38:55.531Z,244.72
2018-09-20T18:40:57.800Z,240.30
2018-09-20T18:43:00.114Z,271.15
2018-09-20T18:45:02.378Z,266.12
2018-09-20T18:47:04.684Z,284.40
2018-09-20T18:49:06.975Z,307.23
2018-09-20T18:51:09.279Z,331.23
2018-09-20T18:53:11.536Z,329.27
2018-09-20T18:55:13.798Z,311.35
2018-09-20T18:57:16.108Z,288.05
2018-09-20T18:59:18.441Z,319.95
2018-09-20T19:01:20.703Z,365.85
2018-09-20T19:03:23.017Z,370.35
2018-09-20T19:05:25.325Z,384.62
2018-09-20T19:07:27.598Z,381.50
2018-09-20T19:09:29.889Z,408.55
2018-09-20T19:11:32.192Z,406.25
2018-09-20T19:13:34.496Z,409.77
2018-09-20T19:15:36.757Z,423.50
2018-09-20T19:17:39.078Z,414.43
2018-09-20T19:19:41.341Z,404.07
2018-09-20T19:21:43.648Z,370.57
2018-09-20T19:23:45.959Z,392.35
2018-09-20T19:25:48.252Z,415.20
2018-09-20T19:27:50.507Z,414.67
2018-09-20T19:29:52.801Z,415.30
2018-09-20T19:31:55.059Z,402.73
2018-09-20T19:33:57.363Z,439.13
2018-09-20T19:35:59.642Z,466.92
2018-09-20T19:38:01.949Z,514.17
2018-09-20T19:40:04.214Z,520.23
2018-09-20T19:42:06.492Z,524.20
2018-09-20T19:44:08.779Z,534.00
2018-09-20T19:46:11.085Z,538.10
2018-09-20T19:48:13.383Z,550.67
2018-09-20T19:50:15.661Z,551.15
2018-09-20T19:52:18.036Z,568.13
2018-09-20T19:54:20.253Z,511.62
2018-09-20T19:56:22.584Z,536.02
2018-09-20T19:58:24.901Z,495.82
2018-09-20T20:00:27.187Z,515.10
2018-09-20T20:02:29.476Z,507.12
2018-09-20T20:04:31.754Z,508.87
2018-09-20T20:06:34.050Z,494.55
2018-09-20T20:08:36.444Z,484.50
2018-09-20T20:10:38.672Z,657.95
2018-09-20T20:12:40.995Z,580.58
2018-09-20T20:14:43.256Z,487.62
2018-09-20T20:16:45.600Z,518.27
2018-09-20T20:18:47.893Z,513.35
2018-09-20T20:20:50.140Z,502.10
2018-09-20T20:22:52.443Z,525.62
2018-09-20T20:24:54.698Z,537.35
2018-09-20T20:26:56.997Z,510.50
2018-09-20T20:28:59.313Z,514.42
2018-09-20T20:31:01.575Z,573.10
2018-09-20T20:33:03.850Z,580.42
2018-09-20T20:35:06.151Z,552.58
2018-09-20T20:37:08.460Z,557.00
2018-09-20T20:39:10.738Z,547.40
2018-09-20T20:41:12.993Z,556.60
2018-09-20T20:43:15.448Z,550.40
2018-09-20T20:45:17.706Z,543.63
2018-09-20T20:47:19.951Z,551.10
2018-09-20T20:49:22.262Z,537.30
2018-09-20T20:51:24.527Z,539.60
2018-09-20T20:53:26.792Z,531.58
2018-09-20T20:55:29.083Z,542.50
2018-09-20T20:57:31.356Z,533.33
2018-09-20T20:59:33.644Z,513.17
2018-09-20T21:01:35.940Z,529.87
2018-09-20T21:03:38.199Z,524.85
2018-09-20T21:05:40.501Z,511.80
2018-09-20T21:07:42.780Z,514.60
2018-09-20T21:09:45.027Z,525.25
2018-09-20T21:11:47.337Z,518.83
2018-09-20T21:13:49.591Z,508.90
2018-09-20T21:15:51.896Z,511.55
2018-09-20T21:17:54.220Z,504.25
2018-09-20T21:19:56.491Z,511.00
2018-09-20T21:21:58.766Z,482.32
2018-09-20T21:24:01.042Z,496.70
2018-09-20T21:26:03.338Z,499.10
2018-09-20T21:28:05.616Z,502.78
2018-09-20T21:30:07.946Z,503.75
2018-09-20T21:32:10.196Z,525.80
2018-09-20T21:34:12.455Z,546.27
2018-09-20T21:36:14.755Z,572.45
2018-09-20T21:38:17.040Z,596.48
2018-09-20T21:40:19.353Z,630.37
2018-09-20T21:42:21.676Z,609.92
2018-09-20T21:44:23.948Z,597.35
2018-09-20T21:46:26.264Z,602.13
2018-09-20T21:48:28.533Z,591.40
2018-09-20T21:50:30.777Z,597.02
2018-09-20T21:52:33.254Z,590.40
2018-09-20T21:54:35.559Z,577.42
2018-09-20T21:56:37.808Z,593.10
2018-09-20T21:58:40.103Z,584.55
2018-09-20T22:00:42.382Z,637.95
2018-09-20T22:02:44.682Z,654.48
2018-09-20T22:04:46.978Z,660.25
2018-09-20T22:06:49.272Z,667.87
2018-09-20T22:08:51.562Z,655.60
2018-09-20T22:10:53.839Z,668.95
2018-09-20T22:12:56.143Z,644.45
2018-09-20T22:14:58.412Z,663.33
2018-09-20T22:17:00.721Z,999.90
2018-09-20T22:19:02.990Z,655.03
2018-09-20T22:21:05.306Z,678.45
2018-09-20T22:23:07.561Z,672.15
2018-09-20T22:25:09.830Z,651.10
2018-09-20T22:27:12.122Z,661.88
2018-09-20T22:29:14.426Z,666.35
2018-09-20T22:31:16.693Z,667.80
2018-09-20T22:33:18.975Z,686.02
2018-09-20T22:35:21.240Z,684.35
2018-09-20T22:37:23.545Z,659.40
2018-09-20T22:39:25.832Z,679.85
2018-09-20T22:41:28.086Z,685.02
2018-09-20T22:43:30.368Z,682.75
2018-09-20T22:45:32.645Z,666.33
2018-09-20T22:47:34.939Z,675.98
2018-09-20T22:49:37.237Z,663.87
2018-09-20T22:51:39.545Z,674.30
2018-09-20T22:53:41.805Z,662.80
2018-09-20T22:55:44.083Z,661.85
2018-09-20T22:57:46.383Z,681.37
2018-09-20T22:59:48.647Z,657.05
2018-09-20T23:01:50.974Z,659.87
2018-09-20T23:03:53.246Z,658.90
2018-09-20T23:05:55.495Z,655.00
2018-09-20T23:07:57.777Z,665.85
2018-09-20T23:10:00.047Z,667.48
2018-09-20T23:12:02.307Z,656.70
2018-09-20T23:14:04.617Z,642.80
2018-09-20T23:16:06.896Z,648.37
2018-09-20T23:18:09.209Z,651.35
2018-09-20T23:20:11.505Z,655.15
2018-09-20T23:22:13.813Z,640.55
2018-09-20T23:24:16.108Z,644.73
2018-09-20T23:26:18.381Z,637.27
2018-09-20T23:28:20.664Z,637.83
2018-09-20T23:30:22.967Z,630.55
2018-09-20T23:32:25.205Z,645.23
2018-09-20T23:34:27.496Z,627.67
2018-09-20T23:36:29.779Z,627.95
2018-09-20T23:38:32.090Z,633.07
2018-09-20T23:40:34.392Z,629.20
2018-09-20T23:42:36.654Z,615.02
2018-09-20T23:44:38.951Z,620.45
2018-09-20T23:46:41.232Z,613.67
2018-09-20T23:48:43.528Z,606.50
2018-09-20T23:50:45.789Z,603.27
2018-09-20T23:52:48.039Z,600.10
2018-09-20T23:54:50.327Z,596.45
2018-09-20T23:56:52.632Z,591.38
2018-09-20T23:58:54.908Z,590.15
